Terminal Aerodrome Forecast
Issued by NWS Houston/Galveston, TX

Home | Current Version | Previous Version | Text Only | Print | Product List | Glossary On
Versions: 1 2 3 4 5 6 7 8 9 10 11 12 13 14 15 16 17 18 19 20 21 22 23 24 25 26 27 28 29 30 31 32 33 34 35 36 37 38 39 40 41 42 43 44
000
FTUS44 KHGX 181138
TAFGLS
TAF
KGLS 181138Z 1812/1912 04004KT P6SM BKN016 BKN026 OVC050
     FM181600 05008KT 6SM -RA BR BKN025
      TEMPO 1817/1821 3SM SHRA OVC015
     FM190000 11007KT 4SM BR OVC015
     FM190600 14005KT 2SM BR OVC010=

USA.gov is the U.S. government's official web portal to all federal, state and local government web resources and services.